createdAt,value
2019-04-16T00:00:27.879Z,0.00
2019-04-16T00:01:27.839Z,0.00
2019-04-16T00:02:27.814Z,0.00
2019-04-16T00:03:27.797Z,0.00
2019-04-16T00:04:27.741Z,0.00
2019-04-16T00:05:28.427Z,0.00
2019-04-16T00:06:27.668Z,0.00
2019-04-16T00:07:27.632Z,0.00
2019-04-16T00:08:28.271Z,0.00
2019-04-16T00:09:27.565Z,0.00
2019-04-16T00:10:27.585Z,0.00
2019-04-16T00:11:27.498Z,0.00
2019-04-16T00:12:27.462Z,0.00
2019-04-16T00:13:27.450Z,0.00
2019-04-16T00:14:27.388Z,0.00
2019-04-16T00:15:27.356Z,0.00
2019-04-16T00:16:27.338Z,0.00
2019-04-16T00:17:27.289Z,0.00
2019-04-16T00:18:27.275Z,0.00
2019-04-16T00:19:27.231Z,0.00
2019-04-16T00:20:27.183Z,0.00
2019-04-16T00:21:27.151Z,0.00
2019-04-16T00:22:27.110Z,0.00
2019-04-16T00:23:27.199Z,0.00
2019-04-16T00:24:27.050Z,0.00
2019-04-16T00:25:27.023Z,0.00
2019-04-16T00:26:27.594Z,0.00
2019-04-16T00:27:33.983Z,0.00
2019-04-16T00:28:30.450Z,0.00
2019-04-16T00:29:27.002Z,0.00
2019-04-16T00:30:26.836Z,0.00
2019-04-16T00:31:26.799Z,0.00
2019-04-16T00:32:26.762Z,0.00
2019-04-16T00:33:26.754Z,0.00
2019-04-16T00:34:26.689Z,0.00
2019-04-16T00:35:26.656Z,0.00
2019-04-16T00:36:26.638Z,0.00
2019-04-16T00:37:26.590Z,0.00
2019-04-16T00:38:39.765Z,0.00
2019-04-16T00:39:26.540Z,0.00
2019-04-16T00:40:27.225Z,0.00
2019-04-16T00:41:26.447Z,0.00
2019-04-16T00:42:26.415Z,0.00
2019-04-16T00:43:26.382Z,0.00
2019-04-16T00:44:26.368Z,0.00
2019-04-16T00:45:26.305Z,0.00
2019-04-16T00:46:26.864Z,0.00
2019-04-16T00:47:26.239Z,0.00
2019-04-16T00:48:26.206Z,0.00
2019-04-16T00:49:27.083Z,0.00
2019-04-16T00:50:26.136Z,0.00
2019-04-16T00:51:26.098Z,0.00
2019-04-16T00:52:26.080Z,0.00
2019-04-16T00:53:26.040Z,0.00
2019-04-16T00:54:26.019Z,0.00
2019-04-16T00:55:25.962Z,0.00
2019-04-16T00:56:25.923Z,0.00
2019-04-16T00:57:25.887Z,0.00
2019-04-16T00:58:25.856Z,0.00
2019-04-16T00:59:25.827Z,0.00
2019-04-16T01:00:27.659Z,0.00
2019-04-16T01:01:25.787Z,0.00
2019-04-16T01:02:25.718Z,0.00
2019-04-16T01:03:25.678Z,0.00
2019-04-16T01:04:25.653Z,0.00
2019-04-16T01:05:25.634Z,0.00
2019-04-16T01:06:25.586Z,0.00
2019-04-16T01:07:25.539Z,0.00
2019-04-16T01:08:25.503Z,0.00
2019-04-16T01:09:25.467Z,0.00
2019-04-16T01:10:25.457Z,0.00
2019-04-16T01:11:25.399Z,0.00
2019-04-16T01:12:25.362Z,0.00
2019-04-16T01:13:25.327Z,0.00
2019-04-16T01:14:26.751Z,0.00
2019-04-16T01:15:25.286Z,0.00
2019-04-16T01:16:25.226Z,0.00
2019-04-16T01:17:25.191Z,0.00
2019-04-16T01:18:25.152Z,0.00
2019-04-16T01:19:25.180Z,0.00
2019-04-16T01:20:25.113Z,0.00
2019-04-16T01:21:25.048Z,0.00
2019-04-16T01:22:25.014Z,0.00
2019-04-16T01:23:24.991Z,0.00
2019-04-16T01:24:24.946Z,0.00
2019-04-16T01:25:24.935Z,0.00
2019-04-16T01:26:26.991Z,0.00
2019-04-16T01:27:28.558Z,0.00
2019-04-16T01:28:24.804Z,0.00
2019-04-16T01:29:24.768Z,0.00
2019-04-16T01:30:24.757Z,0.00
2019-04-16T01:31:24.695Z,0.00
2019-04-16T01:32:24.665Z,0.00
2019-04-16T01:33:24.627Z,0.00
2019-04-16T01:34:24.589Z,0.00
2019-04-16T01:35:24.585Z,0.00
2019-04-16T01:36:24.519Z,0.00
2019-04-16T01:37:25.798Z,0.00
2019-04-16T01:38:27.664Z,0.00
2019-04-16T01:39:24.415Z,0.00
2019-04-16T01:40:24.381Z,0.00
2019-04-16T01:41:24.371Z,0.00
2019-04-16T01:42:24.307Z,0.00
2019-04-16T01:43:25.758Z,0.00
2019-04-16T01:44:28.599Z,0.00
2019-04-16T01:45:24.203Z,0.00
2019-04-16T01:46:24.200Z,0.00
2019-04-16T01:47:24.168Z,0.00
2019-04-16T01:48:24.105Z,0.00
2019-04-16T01:49:24.069Z,0.00
2019-04-16T01:50:24.026Z,0.00
2019-04-16T01:51:24.026Z,0.00
2019-04-16T01:52:23.958Z,0.00
2019-04-16T01:53:24.770Z,0.00
2019-04-16T01:54:23.895Z,0.00
2019-04-16T01:55:25.757Z,0.00
2019-04-16T01:56:27.789Z,0.00
2019-04-16T01:57:23.779Z,0.00
2019-04-16T01:58:23.749Z,0.00
2019-04-16T01:59:23.711Z,0.00
2019-04-16T02:00:23.684Z,0.00
2019-04-16T02:01:23.660Z,0.00
2019-04-16T02:02:23.604Z,0.00
2019-04-16T02:03:23.567Z,0.00
2019-04-16T02:04:23.531Z,0.00
2019-04-16T02:05:23.974Z,0.00
2019-04-16T02:06:25.914Z,0.00
2019-04-16T02:07:27.733Z,0.00
2019-04-16T02:08:23.387Z,0.00
2019-04-16T02:09:23.352Z,0.00
2019-04-16T02:10:23.318Z,0.00
2019-04-16T02:11:23.313Z,0.00
2019-04-16T02:12:23.247Z,0.00
2019-04-16T02:13:23.218Z,0.00
2019-04-16T02:14:23.213Z,0.00
2019-04-16T02:15:23.142Z,0.00
2019-04-16T02:16:25.159Z,0.00
2019-04-16T02:17:26.708Z,0.00
2019-04-16T02:18:23.041Z,0.00
2019-04-16T02:19:22.997Z,0.00
2019-04-16T02:20:22.967Z,0.00
2019-04-16T02:21:22.956Z,0.00
2019-04-16T02:22:22.893Z,0.00
2019-04-16T02:23:22.861Z,0.00
2019-04-16T02:24:22.818Z,0.00
2019-04-16T02:25:22.785Z,0.00
2019-04-16T02:26:23.523Z,0.00
2019-04-16T02:27:23.480Z,0.00
2019-04-16T02:28:27.828Z,0.00
2019-04-16T02:29:22.650Z,0.00
2019-04-16T02:30:22.608Z,0.00
2019-04-16T02:31:22.576Z,0.00
2019-04-16T02:32:22.559Z,0.00
2019-04-16T02:33:22.501Z,0.00
2019-04-16T02:34:22.473Z,0.00
2019-04-16T02:35:22.433Z,0.00
2019-04-16T02:36:22.399Z,0.00
2019-04-16T02:37:22.379Z,0.00
2019-04-16T02:38:22.325Z,0.00
2019-04-16T02:39:25.574Z,0.00
2019-04-16T02:40:22.256Z,0.00
2019-04-16T02:41:23.308Z,0.00
2019-04-16T02:42:22.213Z,0.00
2019-04-16T02:43:22.143Z,0.00
2019-04-16T02:44:22.119Z,0.00
2019-04-16T02:45:23.488Z,0.00
2019-04-16T02:46:22.039Z,0.00
2019-04-16T02:47:22.046Z,0.00
2019-04-16T02:48:21.970Z,0.00
2019-04-16T02:49:24.437Z,0.00
2019-04-16T02:50:21.914Z,0.00
2019-04-16T02:51:21.885Z,0.00
2019-04-16T02:52:21.860Z,0.00
2019-04-16T02:53:24.637Z,0.00
2019-04-16T02:54:21.751Z,0.00
2019-04-16T02:55:21.718Z,0.00
2019-04-16T02:56:21.681Z,0.00
2019-04-16T02:57:25.973Z,0.00
2019-04-16T02:58:21.610Z,0.00
2019-04-16T02:59:21.575Z,0.00
2019-04-16T03:00:22.368Z,0.00
2019-04-16T03:01:22.370Z,0.00
2019-04-16T03:02:23.084Z,0.00
2019-04-16T03:03:22.236Z,0.00
2019-04-16T03:04:21.394Z,0.00
2019-04-16T03:05:21.355Z,0.00
2019-04-16T03:06:21.322Z,0.00
2019-04-16T03:07:21.319Z,0.00
2019-04-16T03:08:21.248Z,0.00
2019-04-16T03:09:21.216Z,0.00
2019-04-16T03:10:21.177Z,0.00
2019-04-16T03:11:21.142Z,0.00
2019-04-16T03:12:21.672Z,0.00
2019-04-16T03:13:23.244Z,0.00
2019-04-16T03:14:29.551Z,0.00
2019-04-16T03:15:21.003Z,0.00
2019-04-16T03:16:20.967Z,0.00
2019-04-16T03:17:20.950Z,0.00
2019-04-16T03:18:20.889Z,0.00
2019-04-16T03:19:20.853Z,0.00
2019-04-16T03:20:24.015Z,0.00
2019-04-16T03:21:20.786Z,0.00
2019-04-16T03:22:20.760Z,0.00
2019-04-16T03:23:20.737Z,0.00
2019-04-16T03:24:20.671Z,0.00
2019-04-16T03:25:20.636Z,0.00
2019-04-16T03:26:20.608Z,0.00
2019-04-16T03:27:22.183Z,0.00
2019-04-16T03:28:20.556Z,0.00
2019-04-16T03:29:20.492Z,0.00
2019-04-16T03:30:20.462Z,0.00
2019-04-16T03:31:23.234Z,0.00
2019-04-16T03:32:20.386Z,0.00
2019-04-16T03:33:20.387Z,4.00
2019-04-16T03:34:21.937Z,4.00
2019-04-16T03:35:25.477Z,4.00
2019-04-16T03:36:20.239Z,0.00
2019-04-16T03:37:20.208Z,4.00
2019-04-16T03:38:20.201Z,4.00
2019-04-16T03:39:20.138Z,4.00
2019-04-16T03:40:24.652Z,8.00
2019-04-16T03:41:20.119Z,8.00
2019-04-16T03:42:20.029Z,8.00
2019-04-16T03:43:20.012Z,8.00
2019-04-16T03:44:19.955Z,8.00
2019-04-16T03:45:19.914Z,12.00
2019-04-16T03:46:19.884Z,16.00
2019-04-16T03:47:20.044Z,16.00
2019-04-16T03:48:20.674Z,20.00
2019-04-16T03:49:19.770Z,24.00
2019-04-16T03:50:19.736Z,28.00
2019-04-16T03:51:19.702Z,28.00
2019-04-16T03:52:19.662Z,36.00
2019-04-16T03:53:19.651Z,40.00
2019-04-16T03:54:22.337Z,48.00
2019-04-16T03:55:19.558Z,52.00
2019-04-16T03:56:19.524Z,60.00
2019-04-16T03:57:19.505Z,72.00
2019-04-16T03:58:19.472Z,80.00
2019-04-16T03:59:19.412Z,92.00
2019-04-16T04:00:19.375Z,100.00
2019-04-16T04:01:19.351Z,116.00
2019-04-16T04:02:22.916Z,132.00
2019-04-16T04:03:19.296Z,144.00
2019-04-16T04:04:19.248Z,164.00
2019-04-16T04:05:19.205Z,180.00
2019-04-16T04:06:19.158Z,200.00
2019-04-16T04:07:19.894Z,220.00
2019-04-16T04:08:19.116Z,240.00
2019-04-16T04:09:22.197Z,264.00
2019-04-16T04:10:30.398Z,288.00
2019-04-16T04:11:19.016Z,312.00
2019-04-16T04:12:18.942Z,340.00
2019-04-16T04:13:19.262Z,372.00
2019-04-16T04:14:22.384Z,396.00
2019-04-16T04:15:18.834Z,432.00
2019-04-16T04:16:18.798Z,460.00
2019-04-16T04:17:18.760Z,492.00
2019-04-16T04:18:18.728Z,528.00
2019-04-16T04:19:18.715Z,564.00
2019-04-16T04:20:19.368Z,600.00
2019-04-16T04:21:22.090Z,636.00
2019-04-16T04:22:18.668Z,672.00
2019-04-16T04:23:18.550Z,712.00
2019-04-16T04:24:18.538Z,756.00
2019-04-16T04:25:18.479Z,800.00
2019-04-16T04:26:18.437Z,844.00
2019-04-16T04:27:19.323Z,888.00
2019-04-16T04:28:19.995Z,940.00
2019-04-16T04:29:20.671Z,980.00
2019-04-16T04:30:18.427Z,1012.00
2019-04-16T04:31:18.270Z,1052.00
2019-04-16T04:32:18.228Z,1104.00
2019-04-16T04:33:18.193Z,1152.00
2019-04-16T04:34:18.191Z,1204.00
2019-04-16T04:35:21.791Z,1264.00
2019-04-16T04:36:19.596Z,1312.00
2019-04-16T04:37:18.046Z,1364.00
2019-04-16T04:38:18.015Z,1400.00
2019-04-16T04:39:18.084Z,1476.00
2019-04-16T04:40:18.159Z,1560.00
2019-04-16T04:41:19.939Z,1640.00
2019-04-16T04:42:19.338Z,1700.00
2019-04-16T04:43:17.835Z,1756.00
2019-04-16T04:44:17.815Z,1848.00
2019-04-16T04:45:17.756Z,1948.00
2019-04-16T04:46:17.724Z,2032.00
2019-04-16T04:47:19.272Z,2080.00
2019-04-16T04:48:20.330Z,2064.00
2019-04-16T04:49:17.681Z,2052.00
2019-04-16T04:50:17.583Z,2096.00
2019-04-16T04:51:17.553Z,2140.00
2019-04-16T04:52:17.514Z,2192.00
2019-04-16T04:53:19.210Z,2240.00
2019-04-16T04:54:21.633Z,2292.00
2019-04-16T04:55:17.404Z,2344.00
2019-04-16T04:56:19.335Z,2392.00
2019-04-16T04:57:17.330Z,2436.00
2019-04-16T04:58:17.301Z,2488.00
2019-04-16T04:59:17.291Z,2528.00
2019-04-16T05:00:17.226Z,2580.00
2019-04-16T05:01:17.201Z,2624.00
2019-04-16T05:02:17.157Z,2668.00
2019-04-16T05:03:20.786Z,2716.00
2019-04-16T05:04:20.366Z,2752.00
2019-04-16T05:05:17.240Z,2792.00
2019-04-16T05:06:17.019Z,2832.00
2019-04-16T05:07:17.000Z,2872.00
2019-04-16T05:08:16.947Z,2916.00
2019-04-16T05:09:16.918Z,2956.00
2019-04-16T05:10:16.900Z,2996.00
2019-04-16T05:11:17.048Z,3032.00
2019-04-16T05:12:17.862Z,3072.00
2019-04-16T05:13:16.770Z,3108.00
2019-04-16T05:14:18.786Z,3148.00
2019-04-16T05:15:16.751Z,3188.00
2019-04-16T05:16:17.014Z,3224.00
2019-04-16T05:17:16.657Z,3268.00
2019-04-16T05:18:16.599Z,3304.00
2019-04-16T05:19:16.569Z,3336.00
2019-04-16T05:20:16.820Z,3360.00
2019-04-16T05:21:18.946Z,3388.00
2019-04-16T05:22:20.667Z,3412.00
2019-04-16T05:23:16.429Z,3440.00
2019-04-16T05:24:16.389Z,3464.00
2019-04-16T05:25:16.381Z,3488.00
2019-04-16T05:26:16.468Z,3524.00
2019-04-16T05:27:16.443Z,3556.00
2019-04-16T05:28:16.259Z,3588.00
2019-04-16T05:29:18.115Z,3612.00
2019-04-16T05:30:19.947Z,3636.00
2019-04-16T05:31:16.144Z,3664.00
2019-04-16T05:32:16.115Z,3688.00
2019-04-16T05:33:16.078Z,3720.00
2019-04-16T05:34:18.120Z,3756.00
2019-04-16T05:35:16.035Z,3780.00
2019-04-16T05:36:15.972Z,3808.00
2019-04-16T05:37:16.421Z,3828.00
2019-04-16T05:38:16.795Z,3848.00
2019-04-16T05:39:16.039Z,3880.00
2019-04-16T05:40:16.079Z,3904.00
2019-04-16T05:41:20.303Z,3928.00
2019-04-16T05:42:15.767Z,3952.00
2019-04-16T05:43:15.731Z,3976.00
2019-04-16T05:44:15.695Z,4000.00
2019-04-16T05:45:15.719Z,4024.00
2019-04-16T05:46:15.639Z,4044.00
2019-04-16T05:47:18.075Z,4068.00
2019-04-16T05:48:15.564Z,4088.00
2019-04-16T05:49:15.528Z,4104.00
2019-04-16T05:50:15.587Z,4116.00
2019-04-16T05:51:15.462Z,4124.00
2019-04-16T05:52:15.424Z,4132.00
2019-04-16T05:53:15.390Z,4132.00
2019-04-16T05:54:15.357Z,4136.00
2019-04-16T05:55:17.992Z,4148.00
2019-04-16T05:56:15.292Z,4168.00
2019-04-16T05:57:15.253Z,4180.00
2019-04-16T05:58:15.218Z,4196.00
2019-04-16T05:59:15.192Z,4204.00
2019-04-16T06:00:15.171Z,4220.00
2019-04-16T06:01:15.130Z,4240.00
2019-04-16T06:02:18.215Z,4256.00
2019-04-16T06:03:15.051Z,4264.00
2019-04-16T06:04:15.019Z,4276.00
2019-04-16T06:05:15.010Z,4276.00
2019-04-16T06:06:14.953Z,4276.00
2019-04-16T06:07:14.912Z,4276.00
2019-04-16T06:08:14.981Z,4276.00
2019-04-16T06:09:14.851Z,4284.00
2019-04-16T06:10:17.829Z,4292.00
2019-04-16T06:11:27.606Z,4300.00
2019-04-16T06:12:14.743Z,4312.00
2019-04-16T06:13:14.719Z,4324.00
2019-04-16T06:14:17.606Z,4336.00
2019-04-16T06:15:14.751Z,4356.00
2019-04-16T06:16:14.613Z,4368.00
2019-04-16T06:17:14.827Z,4388.00
2019-04-16T06:18:17.565Z,4396.00
2019-04-16T06:19:14.506Z,4412.00
2019-04-16T06:20:19.004Z,4420.00
2019-04-16T06:21:15.423Z,4436.00
2019-04-16T06:22:14.408Z,4448.00
2019-04-16T06:23:14.399Z,4460.00
2019-04-16T06:24:14.439Z,4468.00
2019-04-16T06:25:14.309Z,4476.00
2019-04-16T06:26:16.311Z,4484.00
2019-04-16T06:27:14.239Z,4492.00
2019-04-16T06:28:21.242Z,4496.00
2019-04-16T06:29:14.174Z,4504.00
2019-04-16T06:30:14.137Z,4512.00
2019-04-16T06:31:14.148Z,4520.00
2019-04-16T06:32:14.072Z,4528.00
2019-04-16T06:33:14.062Z,4536.00
2019-04-16T06:34:14.003Z,4536.00
2019-04-16T06:35:14.119Z,4540.00
2019-04-16T06:36:14.089Z,4544.00
2019-04-16T06:37:14.142Z,4548.00
2019-04-16T06:38:13.869Z,4564.00
2019-04-16T06:39:13.840Z,4564.00
2019-04-16T06:40:13.808Z,4560.00
2019-04-16T06:41:13.796Z,4580.00
2019-04-16T06:42:13.740Z,4584.00
2019-04-16T06:43:13.717Z,4580.00
2019-04-16T06:44:13.669Z,4604.00
2019-04-16T06:45:13.634Z,4612.00
2019-04-16T06:46:15.320Z,4612.00
2019-04-16T06:47:13.569Z,4624.00
2019-04-16T06:48:13.971Z,4632.00
2019-04-16T06:49:14.305Z,4636.00
2019-04-16T06:50:13.473Z,4644.00
2019-04-16T06:51:13.469Z,4648.00
2019-04-16T06:52:16.625Z,4644.00
2019-04-16T06:53:13.371Z,4648.00
2019-04-16T06:54:13.366Z,4648.00
2019-04-16T06:55:13.311Z,4652.00
2019-04-16T06:56:13.273Z,4656.00
2019-04-16T06:57:13.266Z,4660.00
2019-04-16T06:58:16.662Z,4660.00
2019-04-16T06:59:16.676Z,4664.00
2019-04-16T07:00:13.145Z,4664.00
2019-04-16T07:01:13.112Z,4676.00
2019-04-16T07:02:13.100Z,4688.00
2019-04-16T07:03:13.044Z,4692.00
2019-04-16T07:04:13.037Z,4708.00
2019-04-16T07:05:12.977Z,4732.00
2019-04-16T07:06:12.941Z,4740.00
2019-04-16T07:07:12.937Z,4740.00
2019-04-16T07:08:17.762Z,4748.00
2019-04-16T07:09:12.843Z,4748.00
2019-04-16T07:10:12.817Z,4740.00
2019-04-16T07:11:12.778Z,4748.00
2019-04-16T07:12:12.776Z,4756.00
2019-04-16T07:13:12.725Z,4756.00
2019-04-16T07:14:15.650Z,4760.00
2019-04-16T07:15:12.646Z,4768.00
2019-04-16T07:16:12.624Z,4764.00
2019-04-16T07:17:12.611Z,4760.00
2019-04-16T07:18:12.584Z,4760.00
2019-04-16T07:19:12.522Z,4764.00
2019-04-16T07:20:13.521Z,4768.00
2019-04-16T07:21:14.566Z,4784.00
2019-04-16T07:22:12.491Z,4788.00
2019-04-16T07:23:12.421Z,4792.00
2019-04-16T07:24:12.363Z,4800.00
2019-04-16T07:25:12.442Z,4812.00
2019-04-16T07:26:14.399Z,4824.00
2019-04-16T07:27:12.270Z,4832.00
2019-04-16T07:28:12.257Z,4840.00
2019-04-16T07:29:12.296Z,4844.00
2019-04-16T07:30:12.194Z,4844.00
2019-04-16T07:31:14.723Z,4848.00
2019-04-16T07:32:12.147Z,4908.00
2019-04-16T07:33:12.094Z,4916.00
2019-04-16T07:34:12.043Z,4920.00
2019-04-16T07:35:12.027Z,4920.00
2019-04-16T07:36:11.975Z,4864.00
2019-04-16T07:37:11.946Z,4864.00
2019-04-16T07:38:12.043Z,4856.00
2019-04-16T07:39:14.851Z,4852.00
2019-04-16T07:40:11.852Z,4844.00
2019-04-16T07:41:12.391Z,4852.00
2019-04-16T07:42:15.716Z,4856.00
2019-04-16T07:43:15.370Z,4864.00
2019-04-16T07:44:11.720Z,4872.00
2019-04-16T07:45:13.023Z,4884.00
2019-04-16T07:46:11.667Z,4892.00
2019-04-16T07:47:11.633Z,4896.00
2019-04-16T07:48:11.635Z,4896.00
2019-04-16T07:49:11.567Z,4892.00
2019-04-16T07:50:11.530Z,4904.00
2019-04-16T07:51:11.503Z,4908.00
2019-04-16T07:52:12.295Z,4908.00
2019-04-16T07:53:14.338Z,4920.00
2019-04-16T07:54:12.326Z,4936.00
2019-04-16T07:55:11.375Z,4940.00
2019-04-16T07:56:11.346Z,4940.00
2019-04-16T07:57:11.304Z,4940.00
2019-04-16T07:58:11.304Z,4956.00
2019-04-16T07:59:11.250Z,4956.00
2019-04-16T08:00:11.212Z,4960.00
2019-04-16T08:01:13.642Z,4964.00
2019-04-16T08:02:11.147Z,4976.00
2019-04-16T08:03:11.120Z,4984.00
2019-04-16T08:04:11.125Z,4984.00
2019-04-16T08:05:11.062Z,4984.00
2019-04-16T08:06:14.381Z,5004.00
2019-04-16T08:07:10.993Z,5012.00
2019-04-16T08:08:10.962Z,5004.00
2019-04-16T08:09:11.002Z,5012.00
2019-04-16T08:10:10.900Z,5020.00
2019-04-16T08:11:11.085Z,5040.00
2019-04-16T08:12:28.725Z,5044.00
2019-04-16T08:13:13.946Z,5048.00
2019-04-16T08:14:14.114Z,5072.00
2019-04-16T08:15:14.244Z,5076.00
2019-04-16T08:16:10.715Z,5084.00
2019-04-16T08:17:10.686Z,5092.00
2019-04-16T08:18:10.670Z,5088.00
2019-04-16T08:19:12.279Z,5104.00
2019-04-16T08:20:10.645Z,5112.00
2019-04-16T08:21:12.392Z,5128.00
2019-04-16T08:22:15.454Z,5140.00
2019-04-16T08:23:10.501Z,5144.00
2019-04-16T08:24:10.508Z,5152.00
2019-04-16T08:25:10.432Z,5164.00
2019-04-16T08:26:12.857Z,5164.00
2019-04-16T08:27:10.909Z,5176.00
2019-04-16T08:28:10.345Z,5188.00
2019-04-16T08:29:10.447Z,5192.00
2019-04-16T08:30:10.288Z,5200.00
2019-04-16T08:31:12.294Z,5212.00
2019-04-16T08:32:12.878Z,5228.00
2019-04-16T08:33:11.197Z,5252.00
2019-04-16T08:34:10.191Z,5252.00
2019-04-16T08:35:10.125Z,5260.00
2019-04-16T08:36:10.153Z,5264.00
2019-04-16T08:37:10.072Z,5272.00
2019-04-16T08:38:10.041Z,5280.00
2019-04-16T08:39:10.217Z,5284.00
2019-04-16T08:40:12.454Z,5288.00
2019-04-16T08:41:12.475Z,5292.00
2019-04-16T08:42:09.911Z,5300.00
2019-04-16T08:43:09.878Z,5296.00
2019-04-16T08:44:10.718Z,5300.00
2019-04-16T08:45:09.881Z,5304.00
2019-04-16T08:46:11.403Z,5308.00
2019-04-16T08:47:12.067Z,5308.00
2019-04-16T08:48:09.775Z,5304.00
2019-04-16T08:49:09.708Z,5296.00
2019-04-16T08:50:11.714Z,5296.00
2019-04-16T08:51:09.646Z,5296.00
2019-04-16T08:52:10.917Z,5284.00
2019-04-16T08:53:13.326Z,5280.00
2019-04-16T08:54:09.576Z,5272.00
2019-04-16T08:55:09.604Z,5264.00
2019-04-16T08:56:09.500Z,5264.00
2019-04-16T08:57:09.464Z,5256.00
2019-04-16T08:58:12.300Z,5260.00
2019-04-16T08:59:11.073Z,5260.00
2019-04-16T09:00:14.156Z,5256.00
2019-04-16T09:01:09.351Z,5256.00
2019-04-16T09:02:09.332Z,5256.00
2019-04-16T09:03:09.278Z,5256.00
2019-04-16T09:04:09.247Z,5252.00
2019-04-16T09:05:11.486Z,5256.00
2019-04-16T09:06:13.018Z,5256.00
2019-04-16T09:07:12.118Z,5256.00
2019-04-16T09:08:12.963Z,5252.00
2019-04-16T09:09:13.402Z,5244.00
2019-04-16T09:10:17.579Z,5236.00
2019-04-16T09:11:21.833Z,5240.00
2019-04-16T09:12:09.764Z,5236.00
2019-04-16T09:13:09.022Z,5228.00
2019-04-16T09:14:08.948Z,5216.00
2019-04-16T09:15:09.034Z,5204.00
2019-04-16T09:16:10.585Z,5208.00
2019-04-16T09:17:09.896Z,5200.00
2019-04-16T09:18:09.121Z,5180.00
2019-04-16T09:19:08.814Z,5176.00
2019-04-16T09:20:08.798Z,5176.00
2019-04-16T09:21:10.558Z,5188.00
2019-04-16T09:22:08.719Z,5192.00
2019-04-16T09:23:08.880Z,5192.00
2019-04-16T09:24:09.869Z,5196.00
2019-04-16T09:25:12.517Z,5196.00
2019-04-16T09:26:14.185Z,5188.00
2019-04-16T09:27:08.598Z,5184.00
2019-04-16T09:28:23.755Z,5188.00
2019-04-16T09:29:10.343Z,5188.00
2019-04-16T09:30:10.800Z,5180.00
2019-04-16T09:31:08.522Z,5180.00
2019-04-16T09:32:08.417Z,5172.00
2019-04-16T09:33:08.398Z,5176.00
2019-04-16T09:34:08.360Z,5180.00
2019-04-16T09:35:10.747Z,5196.00
2019-04-16T09:36:08.325Z,5200.00
2019-04-16T09:37:08.266Z,5204.00
2019-04-16T09:38:09.354Z,5196.00
2019-04-16T09:39:08.207Z,5200.00
2019-04-16T09:40:16.459Z,5192.00
2019-04-16T09:41:08.182Z,5200.00
2019-04-16T09:42:08.123Z,5200.00
2019-04-16T09:43:16.802Z,5216.00
2019-04-16T09:44:08.061Z,5232.00
2019-04-16T09:45:08.033Z,5252.00
2019-04-16T09:46:10.522Z,5260.00
2019-04-16T09:47:07.994Z,5268.00
2019-04-16T09:48:07.951Z,5276.00
2019-04-16T09:49:07.915Z,5292.00
2019-04-16T09:50:11.161Z,5272.00
2019-04-16T09:51:07.897Z,5276.00
2019-04-16T09:52:07.831Z,5292.00
2019-04-16T09:53:07.805Z,5312.00
2019-04-16T09:54:12.307Z,5312.00
2019-04-16T09:55:07.775Z,5328.00
2019-04-16T09:56:07.756Z,5332.00
2019-04-16T09:57:07.686Z,5352.00
2019-04-16T09:58:07.659Z,5348.00
2019-04-16T09:59:07.623Z,5348.00
2019-04-16T10:00:08.377Z,5348.00
2019-04-16T10:01:07.578Z,5352.00
2019-04-16T10:02:08.565Z,5352.00
2019-04-16T10:03:07.521Z,5360.00
2019-04-16T10:04:07.479Z,5384.00
2019-04-16T10:05:07.455Z,5372.00
2019-04-16T10:06:07.419Z,5388.00
2019-04-16T10:07:07.515Z,5396.00
2019-04-16T10:08:09.598Z,5388.00
2019-04-16T10:09:07.354Z,5384.00
2019-04-16T10:10:07.309Z,5380.00
2019-04-16T10:11:07.295Z,5376.00
2019-04-16T10:12:07.874Z,5364.00
2019-04-16T10:13:07.223Z,5348.00
2019-04-16T10:14:07.245Z,5340.00
2019-04-16T10:15:07.236Z,5320.00
2019-04-16T10:16:07.134Z,5308.00
2019-04-16T10:17:07.137Z,5308.00
2019-04-16T10:18:07.075Z,5308.00
2019-04-16T10:19:08.510Z,5316.00
2019-04-16T10:20:07.048Z,5332.00
2019-04-16T10:21:07.037Z,5336.00
2019-04-16T10:22:07.034Z,5332.00
2019-04-16T10:23:06.930Z,5336.00
2019-04-16T10:24:06.894Z,5336.00
2019-04-16T10:25:06.870Z,5332.00
2019-04-16T10:26:06.845Z,5328.00
2019-04-16T10:27:06.855Z,5304.00
2019-04-16T10:28:06.788Z,5300.00
2019-04-16T10:29:06.758Z,5312.00
2019-04-16T10:30:06.743Z,5336.00
2019-04-16T10:31:06.718Z,5348.00
2019-04-16T10:32:06.755Z,5356.00
2019-04-16T10:33:06.641Z,5360.00
2019-04-16T10:34:06.614Z,5384.00
2019-04-16T10:35:06.594Z,5396.00
2019-04-16T10:36:06.553Z,5412.00
2019-04-16T10:37:06.546Z,5432.00
2019-04-16T10:38:06.578Z,5440.00
2019-04-16T10:39:06.466Z,5452.00
2019-04-16T10:40:06.490Z,5460.00
2019-04-16T10:41:06.417Z,5456.00
2019-04-16T10:42:06.516Z,5456.00
2019-04-16T10:43:06.386Z,5468.00
2019-04-16T10:44:06.359Z,5468.00
2019-04-16T10:45:06.296Z,5468.00
2019-04-16T10:46:07.198Z,5480.00
2019-04-16T10:47:06.278Z,5496.00
2019-04-16T10:48:06.214Z,5496.00
2019-04-16T10:49:06.179Z,5472.00
2019-04-16T10:50:06.183Z,5460.00
2019-04-16T10:51:06.125Z,5444.00
2019-04-16T10:52:06.182Z,5456.00
2019-04-16T10:53:06.111Z,5432.00
2019-04-16T10:54:06.111Z,5424.00
2019-04-16T10:55:06.006Z,5428.00
2019-04-16T10:56:05.977Z,5440.00
2019-04-16T10:57:05.953Z,5456.00
2019-04-16T10:58:05.966Z,5484.00
2019-04-16T10:59:06.114Z,5480.00
2019-04-16T11:00:05.871Z,5480.00
2019-04-16T11:01:05.843Z,5480.00
2019-04-16T11:02:09.909Z,5476.00
2019-04-16T11:03:05.809Z,5468.00
2019-04-16T11:04:07.893Z,5476.00
2019-04-16T11:05:05.768Z,5476.00
2019-04-16T11:06:05.718Z,5480.00
2019-04-16T11:07:05.702Z,5492.00
2019-04-16T11:08:07.346Z,5508.00
2019-04-16T11:09:05.618Z,5512.00
2019-04-16T11:10:05.581Z,5492.00
2019-04-16T11:11:05.552Z,5472.00
2019-04-16T11:12:06.025Z,5448.00
2019-04-16T11:13:05.543Z,5428.00
2019-04-16T11:14:05.489Z,5444.00
2019-04-16T11:15:05.445Z,5444.00
2019-04-16T11:16:05.415Z,5428.00
2019-04-16T11:17:05.457Z,5416.00
2019-04-16T11:18:05.398Z,5404.00
2019-04-16T11:19:05.374Z,5380.00
2019-04-16T11:20:06.113Z,5396.00
2019-04-16T11:21:05.323Z,5396.00
2019-04-16T11:22:05.683Z,5408.00
2019-04-16T11:23:07.522Z,5392.00
2019-04-16T11:24:05.198Z,5372.00
2019-04-16T11:25:05.161Z,5364.00
2019-04-16T11:26:05.135Z,5360.00
2019-04-16T11:27:05.101Z,5368.00
2019-04-16T11:28:05.107Z,5356.00
2019-04-16T11:29:05.046Z,5368.00
2019-04-16T11:30:05.045Z,5392.00
2019-04-16T11:31:04.996Z,5408.00
2019-04-16T11:32:05.165Z,5408.00
2019-04-16T11:33:05.140Z,5408.00
2019-04-16T11:34:05.058Z,5424.00
2019-04-16T11:35:04.901Z,5436.00
2019-04-16T11:36:17.412Z,5436.00
2019-04-16T11:37:08.067Z,5436.00
2019-04-16T11:38:04.880Z,5440.00
2019-04-16T11:39:04.771Z,5452.00
2019-04-16T11:40:04.780Z,5460.00
2019-04-16T11:41:04.718Z,5468.00
2019-04-16T11:42:04.688Z,5484.00
2019-04-16T11:43:04.875Z,5484.00
2019-04-16T11:44:15.168Z,5464.00
2019-04-16T11:45:04.603Z,5444.00
2019-04-16T11:46:04.617Z,5432.00
2019-04-16T11:47:04.573Z,5436.00
2019-04-16T11:48:04.516Z,5436.00
2019-04-16T11:49:04.555Z,5448.00
2019-04-16T11:50:04.466Z,5432.00
2019-04-16T11:51:04.441Z,5420.00
2019-04-16T11:52:04.411Z,5440.00
2019-04-16T11:53:04.379Z,5468.00
2019-04-16T11:54:04.383Z,5496.00
2019-04-16T11:55:04.440Z,5512.00
2019-04-16T11:56:04.298Z,5512.00
2019-04-16T11:57:04.308Z,5520.00
2019-04-16T11:58:04.458Z,5516.00
2019-04-16T11:59:04.483Z,5532.00
2019-04-16T12:00:07.763Z,5572.00
2019-04-16T12:01:04.164Z,5576.00
2019-04-16T12:02:04.130Z,5568.00
2019-04-16T12:03:04.102Z,5572.00
2019-04-16T12:04:04.164Z,5580.00
2019-04-16T12:05:04.099Z,5576.00
2019-04-16T12:06:04.110Z,5548.00
2019-04-16T12:07:06.039Z,5528.00
2019-04-16T12:08:04.001Z,5512.00
2019-04-16T12:09:04.408Z,5536.00
2019-04-16T12:10:03.921Z,5572.00
2019-04-16T12:11:04.116Z,5584.00
2019-04-16T12:12:04.104Z,5572.00
2019-04-16T12:13:04.394Z,5568.00
2019-04-16T12:14:07.815Z,5560.00
2019-04-16T12:15:03.831Z,5556.00
2019-04-16T12:16:03.784Z,5548.00
2019-04-16T12:17:03.744Z,5552.00
2019-04-16T12:18:03.947Z,5548.00
2019-04-16T12:19:03.815Z,5540.00
2019-04-16T12:20:03.775Z,5536.00
2019-04-16T12:21:03.858Z,5520.00
2019-04-16T12:22:03.600Z,5512.00
2019-04-16T12:23:03.554Z,5512.00
2019-04-16T12:24:03.790Z,5532.00
2019-04-16T12:25:03.538Z,5580.00
2019-04-16T12:26:03.469Z,5580.00
2019-04-16T12:27:03.459Z,5576.00
2019-04-16T12:28:06.464Z,5580.00